createdAt,value
2023-01-13T00:01:16.875Z,99929.34
2023-01-13T00:03:50.996Z,99931.89
2023-01-13T00:06:27.186Z,99930.06
2023-01-13T00:09:01.284Z,99926.25
2023-01-13T00:11:35.348Z,99924.58
2023-01-13T00:14:09.427Z,99925.89
2023-01-13T00:16:43.120Z,99924.80
2023-01-13T00:19:16.662Z,99920.53
2023-01-13T00:21:50.216Z,99922.95
2023-01-13T00:24:23.713Z,99927.40
2023-01-13T00:26:58.071Z,99924.66
2023-01-13T00:29:31.772Z,99923.05
2023-01-13T00:32:05.750Z,99923.50
2023-01-13T00:34:39.467Z,99917.81
2023-01-13T00:37:15.029Z,99918.13
2023-01-13T00:39:49.178Z,99916.80
2023-01-13T00:42:40.787Z,99913.33
2023-01-13T00:45:15.145Z,99914.67
2023-01-13T00:47:49.174Z,99906.11
2023-01-13T00:50:23.308Z,99911.00
2023-01-13T00:52:57.572Z,99915.48
2023-01-13T00:55:32.299Z,99917.87
2023-01-13T00:58:06.099Z,99916.24
2023-01-13T01:00:40.269Z,99912.64
2023-01-13T01:03:14.095Z,99908.80
2023-01-13T01:05:48.642Z,99905.25
2023-01-13T01:08:22.517Z,99905.39
2023-01-13T01:11:04.776Z,99903.77
2023-01-13T01:13:39.571Z,99898.53
2023-01-13T01:16:15.295Z,99885.66
2023-01-13T01:18:51.375Z,99885.30
2023-01-13T01:21:26.583Z,99880.26
2023-01-13T01:24:03.058Z,99880.17
2023-01-13T01:26:36.668Z,99880.40
2023-01-13T01:29:10.898Z,99882.58
2023-01-13T01:31:45.016Z,99885.55
2023-01-13T01:34:18.834Z,99884.70
2023-01-13T01:36:52.612Z,99883.89
2023-01-13T01:39:27.070Z,99876.77
2023-01-13T01:42:17.236Z,99867.45
2023-01-13T01:45:03.314Z,99862.23
2023-01-13T01:47:37.438Z,99856.92
2023-01-13T01:50:12.866Z,99851.30
2023-01-13T01:52:51.764Z,99845.04
2023-01-13T01:55:30.413Z,99845.84
2023-01-13T01:58:04.776Z,99845.82
2023-01-13T02:00:38.795Z,99847.65
2023-01-13T02:03:13.252Z,99837.19
2023-01-13T02:05:47.238Z,99834.03
2023-01-13T02:08:22.516Z,99833.16
2023-01-13T02:10:57.537Z,99829.61
2023-01-13T02:13:31.501Z,99823.09
2023-01-13T02:16:10.598Z,99827.33
2023-01-13T02:18:58.029Z,99822.91
2023-01-13T02:22:04.908Z,99824.81
2023-01-13T02:25:08.282Z,99823.36
2023-01-13T02:27:54.767Z,99822.07
2023-01-13T02:30:57.749Z,99820.42
2023-01-13T02:33:43.068Z,99818.63
2023-01-13T02:36:29.131Z,99815.13
2023-01-13T02:39:08.914Z,99812.30
2023-01-13T02:42:09.268Z,99808.42
2023-01-13T02:44:48.844Z,99808.55
2023-01-13T02:47:25.569Z,99813.20
2023-01-13T02:50:03.792Z,99810.42
2023-01-13T02:52:42.767Z,99809.48
2023-01-13T02:55:19.931Z,99806.98
2023-01-13T02:57:54.838Z,99807.41
2023-01-13T03:00:30.026Z,99801.65
2023-01-13T03:03:04.346Z,99797.55
2023-01-13T03:05:39.877Z,99800.58
2023-01-13T03:08:25.568Z,99799.66
2023-01-13T03:11:07.969Z,99797.80
2023-01-13T03:14:09.731Z,99792.36
2023-01-13T03:16:58.881Z,99788.77
2023-01-13T03:19:44.483Z,99787.55
2023-01-13T03:22:25.321Z,99789.45
2023-01-13T03:25:09.156Z,99787.09
2023-01-13T03:27:50.420Z,99782.99
2023-01-13T03:30:29.579Z,99779.02
2023-01-13T03:33:07.720Z,99780.79
2023-01-13T03:35:46.644Z,99781.52
2023-01-13T03:38:23.949Z,99778.95
2023-01-13T03:40:59.792Z,99779.76
2023-01-13T03:43:56.169Z,99780.85
2023-01-13T03:46:34.771Z,99779.85
2023-01-13T03:49:08.991Z,99783.16
2023-01-13T03:51:45.801Z,99784.89
2023-01-13T03:54:23.728Z,99776.64
2023-01-13T03:57:01.296Z,99777.38
2023-01-13T03:59:40.494Z,99780.36
2023-01-13T04:02:18.872Z,99778.18
2023-01-13T04:04:58.906Z,99778.21
2023-01-13T04:07:41.967Z,99777.48
2023-01-13T04:10:20.170Z,99778.20
2023-01-13T04:13:03.398Z,99780.33
2023-01-13T04:15:41.521Z,99775.52
2023-01-13T04:18:20.057Z,99771.25
2023-01-13T04:20:56.201Z,99771.77
2023-01-13T04:23:30.567Z,99768.74
2023-01-13T04:26:04.163Z,99768.50
2023-01-13T04:28:37.700Z,99767.00
2023-01-13T04:31:11.859Z,99763.39
2023-01-13T04:33:45.776Z,99762.08
2023-01-13T04:36:20.256Z,99760.67
2023-01-13T04:38:53.799Z,99755.55
2023-01-13T04:41:28.088Z,99759.23
2023-01-13T04:44:01.975Z,99759.09
2023-01-13T04:46:35.866Z,99761.56
2023-01-13T04:49:09.600Z,99756.39
2023-01-13T04:51:43.930Z,99751.78
2023-01-13T04:54:19.722Z,99753.25
2023-01-13T04:56:54.218Z,99752.23
2023-01-13T04:59:27.718Z,99753.77
2023-01-13T05:02:01.371Z,99756.72
2023-01-13T05:04:34.800Z,99760.62
2023-01-13T05:07:08.266Z,99755.14
2023-01-13T05:09:41.851Z,99754.17
2023-01-13T05:12:33.984Z,99756.17
2023-01-13T05:15:26.701Z,99755.65
2023-01-13T05:18:00.875Z,99758.93
2023-01-13T05:20:34.865Z,99757.98
2023-01-13T05:23:25.673Z,99760.95
2023-01-13T05:25:59.263Z,99759.94
2023-01-13T05:28:36.735Z,99761.27
2023-01-13T05:31:12.436Z,99762.62
2023-01-13T05:33:45.926Z,99757.57
2023-01-13T05:36:20.008Z,99759.94
2023-01-13T05:38:54.550Z,99760.30
2023-01-13T05:41:47.575Z,99760.95
2023-01-13T05:44:21.540Z,99763.33
2023-01-13T05:46:55.819Z,99765.31
2023-01-13T05:49:29.623Z,99762.36
2023-01-13T05:52:03.861Z,99765.47
2023-01-13T05:54:37.452Z,99768.85
2023-01-13T05:57:11.452Z,99769.66
2023-01-13T05:59:44.824Z,99769.92
2023-01-13T06:02:18.526Z,99770.89
2023-01-13T06:04:52.557Z,99771.14
2023-01-13T06:07:26.855Z,99779.95
2023-01-13T06:10:01.194Z,99781.99
2023-01-13T06:12:34.832Z,99783.48
2023-01-13T06:15:10.341Z,99788.11
2023-01-13T06:17:43.881Z,99790.39
2023-01-13T06:20:19.091Z,99790.64
2023-01-13T06:22:54.168Z,99787.48
2023-01-13T06:25:37.474Z,99789.14
2023-01-13T06:28:11.390Z,99788.63
2023-01-13T06:30:48.508Z,99787.75
2023-01-13T06:33:29.107Z,99789.14
2023-01-13T06:36:07.254Z,99788.44
2023-01-13T06:38:44.948Z,99790.23
2023-01-13T06:41:39.382Z,99792.87
2023-01-13T06:44:13.387Z,99793.59
2023-01-13T06:46:47.564Z,99792.14
2023-01-13T06:49:21.862Z,99792.67
2023-01-13T06:51:55.982Z,99790.66
2023-01-13T06:54:29.793Z,99792.98
2023-01-13T06:57:03.055Z,99790.27
2023-01-13T06:59:36.651Z,99792.17
2023-01-13T07:02:10.482Z,99792.48
2023-01-13T07:04:44.871Z,99792.69
2023-01-13T07:07:18.817Z,99791.73
2023-01-13T07:09:52.569Z,99788.40
2023-01-13T07:12:26.404Z,99793.52
2023-01-13T07:15:17.556Z,99795.87
2023-01-13T07:17:51.129Z,99788.95
2023-01-13T07:20:25.177Z,99790.77
2023-01-13T07:22:59.699Z,99789.02
2023-01-13T07:25:33.492Z,99790.21
2023-01-13T07:28:07.191Z,99787.55
2023-01-13T07:30:41.568Z,99791.00
2023-01-13T07:33:15.698Z,99792.93
2023-01-13T07:35:50.226Z,99789.61
2023-01-13T07:38:23.932Z,99795.08
2023-01-13T07:40:58.034Z,99794.39
2023-01-13T07:43:35.150Z,99793.45
2023-01-13T07:46:10.275Z,99795.23
2023-01-13T07:48:44.105Z,99796.33
2023-01-13T07:51:17.570Z,99794.92
2023-01-13T07:53:51.615Z,99796.73
2023-01-13T07:56:25.894Z,99794.91
2023-01-13T07:59:00.446Z,99799.27
2023-01-13T08:01:34.438Z,99800.55
2023-01-13T08:04:08.286Z,99801.66
2023-01-13T08:06:42.607Z,99798.52
2023-01-13T08:09:16.621Z,99795.70
2023-01-13T08:12:10.887Z,99793.98
2023-01-13T08:14:44.960Z,99799.58
2023-01-13T08:17:20.445Z,99796.66
2023-01-13T08:19:54.599Z,99796.27
2023-01-13T08:22:28.466Z,99790.98
2023-01-13T08:25:01.937Z,99794.48
2023-01-13T08:27:35.723Z,99793.23
2023-01-13T08:30:11.821Z,99799.83
2023-01-13T08:32:47.031Z,99795.86
2023-01-13T08:35:21.515Z,99795.27
2023-01-13T08:37:55.522Z,99797.94
2023-01-13T08:40:29.406Z,99799.38
2023-01-13T08:43:03.407Z,99803.33
2023-01-13T08:45:37.613Z,99800.38
2023-01-13T08:48:12.421Z,99799.39
2023-01-13T08:50:46.122Z,99805.23
2023-01-13T08:53:20.199Z,99803.77
2023-01-13T08:55:54.123Z,99805.84
2023-01-13T08:58:27.805Z,99806.27
2023-01-13T09:01:06.098Z,99809.58
2023-01-13T09:03:42.122Z,99808.92
2023-01-13T09:06:15.956Z,99810.30
2023-01-13T09:08:50.440Z,99814.39
2023-01-13T09:12:02.008Z,99806.73
2023-01-13T09:14:39.659Z,99804.20
2023-01-13T09:17:13.423Z,99800.91
2023-01-13T09:19:47.258Z,99800.23
2023-01-13T09:22:22.227Z,99805.09
2023-01-13T09:24:56.840Z,99799.94
2023-01-13T09:27:31.071Z,99795.96
2023-01-13T09:30:05.032Z,99794.77
2023-01-13T09:32:39.910Z,99800.63
2023-01-13T09:35:14.136Z,99796.22
2023-01-13T09:37:47.962Z,99793.14
2023-01-13T09:40:23.699Z,99790.45
2023-01-13T09:43:17.972Z,99788.83
2023-01-13T09:45:57.534Z,99787.08
2023-01-13T09:48:34.652Z,99784.04
2023-01-13T09:51:21.322Z,99786.23
2023-01-13T09:54:01.663Z,99782.66
2023-01-13T09:56:35.813Z,99777.84
2023-01-13T09:59:12.792Z,99782.93
2023-01-13T10:01:57.766Z,99778.02
2023-01-13T10:04:31.955Z,99773.92
2023-01-13T10:07:07.345Z,99772.14
2023-01-13T10:09:50.154Z,99773.26
2023-01-13T10:12:45.354Z,99769.43
2023-01-13T10:15:23.425Z,99767.02
2023-01-13T10:18:02.550Z,99760.45
2023-01-13T10:20:45.050Z,99762.89
2023-01-13T10:23:38.428Z,99763.60
2023-01-13T10:26:28.361Z,99760.30
2023-01-13T10:29:02.431Z,99754.42
2023-01-13T10:31:35.871Z,99752.46
2023-01-13T10:34:09.808Z,99751.67
2023-01-13T10:37:02.984Z,99746.48
2023-01-13T10:39:45.437Z,99742.98
2023-01-13T10:42:22.750Z,99744.41
2023-01-13T10:44:58.542Z,99741.77
2023-01-13T10:47:34.458Z,99743.77
2023-01-13T10:50:29.225Z,99741.86
2023-01-13T10:53:11.346Z,99741.89
2023-01-13T10:55:45.125Z,99740.98
2023-01-13T10:58:22.305Z,99743.09
2023-01-13T11:01:04.356Z,99740.42
2023-01-13T11:03:45.832Z,99740.42
2023-01-13T11:06:27.571Z,99740.70
2023-01-13T11:09:03.501Z,99734.39
2023-01-13T11:11:45.175Z,99730.71
2023-01-13T11:14:41.144Z,99727.42
2023-01-13T11:17:25.606Z,99728.58
2023-01-13T11:20:16.266Z,99731.41
2023-01-13T11:22:53.419Z,99728.97
2023-01-13T11:25:33.899Z,99734.60
2023-01-13T11:28:18.437Z,99734.35
2023-01-13T11:30:58.716Z,99733.09
2023-01-13T11:33:41.392Z,99729.59
2023-01-13T11:36:21.011Z,99728.89
2023-01-13T11:38:57.134Z,99724.39
2023-01-13T11:41:44.305Z,99724.77
2023-01-13T11:44:28.506Z,99720.42
2023-01-13T11:47:02.355Z,99716.96
2023-01-13T11:49:38.009Z,99713.05
2023-01-13T11:52:22.744Z,99715.41
2023-01-13T11:55:18.209Z,99711.39
2023-01-13T11:58:05.249Z,99708.66
2023-01-13T12:00:54.067Z,99705.09
2023-01-13T12:03:36.120Z,99705.02
2023-01-13T12:06:20.605Z,99701.45
2023-01-13T12:09:12.823Z,99702.64
2023-01-13T12:12:17.567Z,99702.58
2023-01-13T12:15:22.634Z,99701.25
2023-01-13T12:18:10.609Z,99703.63
2023-01-13T12:20:53.096Z,99701.91
2023-01-13T12:23:30.996Z,99703.76
2023-01-13T12:26:09.786Z,99707.73
2023-01-13T12:28:51.274Z,99706.01
2023-01-13T12:31:26.307Z,99701.39
2023-01-13T12:34:10.210Z,99703.46
2023-01-13T12:36:54.510Z,99704.73
2023-01-13T12:39:39.545Z,99707.91
2023-01-13T12:42:37.739Z,99704.30
2023-01-13T12:45:21.383Z,99702.06
2023-01-13T12:47:55.340Z,99697.20
2023-01-13T12:50:45.534Z,99695.96
2023-01-13T12:53:39.316Z,99699.91
2023-01-13T12:56:34.242Z,99695.59
2023-01-13T12:59:36.269Z,99695.27
2023-01-13T13:02:33.729Z,99697.51
2023-01-13T13:05:44.162Z,99694.61
2023-01-13T13:08:26.735Z,99696.00
2023-01-13T13:11:38.764Z,99699.13
2023-01-13T13:14:15.463Z,99701.27
2023-01-13T13:16:54.116Z,99703.59
2023-01-13T13:19:47.170Z,99704.61
2023-01-13T13:22:47.575Z,99704.94
2023-01-13T13:25:29.231Z,99707.51
2023-01-13T13:28:23.400Z,99711.58
2023-01-13T13:31:23.453Z,99710.01
2023-01-13T13:34:21.172Z,99710.98
2023-01-13T13:37:29.353Z,99713.76
2023-01-13T13:40:21.825Z,99712.50
2023-01-13T13:43:19.033Z,99713.45
2023-01-13T13:46:13.525Z,99718.07
2023-01-13T13:48:56.672Z,99721.39
2023-01-13T13:51:39.175Z,99718.52
2023-01-13T13:54:16.897Z,99719.34
2023-01-13T13:56:52.500Z,99719.72
2023-01-13T13:59:30.957Z,99719.91
2023-01-13T14:02:04.181Z,99723.05
2023-01-13T14:04:39.720Z,99720.25
2023-01-13T14:07:22.434Z,99719.92
2023-01-13T14:09:59.996Z,99721.28
2023-01-13T14:12:41.813Z,99723.43
2023-01-13T14:15:31.669Z,99724.02
2023-01-13T14:18:12.241Z,99729.71
2023-01-13T14:20:53.935Z,99727.69
2023-01-13T14:23:31.260Z,99728.95
2023-01-13T14:26:13.348Z,99730.02
2023-01-13T14:28:47.744Z,99734.41
2023-01-13T14:31:22.361Z,99729.50
2023-01-13T14:33:58.962Z,99725.29
2023-01-13T14:36:40.554Z,99726.48
2023-01-13T14:39:38.874Z,99729.36
2023-01-13T14:42:18.206Z,99731.10
2023-01-13T14:44:54.084Z,99729.89
2023-01-13T14:47:32.572Z,99733.17
2023-01-13T14:50:09.331Z,99733.06
2023-01-13T14:52:55.538Z,99730.18
2023-01-13T14:55:32.407Z,99731.23
2023-01-13T14:58:31.729Z,99728.48
2023-01-13T15:01:40.189Z,99734.05
2023-01-13T15:04:29.811Z,99728.45
2023-01-13T15:07:04.845Z,99726.15
2023-01-13T15:09:45.378Z,99724.45
2023-01-13T15:12:25.782Z,99726.71
2023-01-13T15:15:01.330Z,99729.27
2023-01-13T15:17:34.920Z,99725.52
2023-01-13T15:20:16.603Z,99725.98
2023-01-13T15:22:50.491Z,99727.34
2023-01-13T15:25:24.412Z,99732.40
2023-01-13T15:27:58.314Z,99724.67
2023-01-13T15:30:32.785Z,99724.11
2023-01-13T15:33:06.271Z,99720.35
2023-01-13T15:35:41.336Z,99717.86
2023-01-13T15:38:17.879Z,99718.09
2023-01-13T15:40:53.239Z,99717.30
2023-01-13T15:43:45.302Z,99717.30
2023-01-13T15:46:34.266Z,99712.10
2023-01-13T15:49:18.281Z,99715.26
2023-01-13T15:51:52.646Z,99721.77
2023-01-13T15:54:26.584Z,99723.27
2023-01-13T15:57:00.476Z,99722.88
2023-01-13T15:59:34.578Z,99725.78
2023-01-13T16:02:16.345Z,99726.13
2023-01-13T16:04:51.318Z,99728.63
2023-01-13T16:07:27.048Z,99728.77
2023-01-13T16:10:02.189Z,99726.46
2023-01-13T16:12:37.872Z,99728.29
2023-01-13T16:15:14.183Z,99727.70
2023-01-13T16:17:56.451Z,99727.64
2023-01-13T16:20:31.486Z,99728.06
2023-01-13T16:23:05.164Z,99735.35
2023-01-13T16:25:39.203Z,99735.18
2023-01-13T16:28:24.445Z,99736.98
2023-01-13T16:30:58.149Z,99740.78
2023-01-13T16:33:31.670Z,99745.56
2023-01-13T16:36:10.549Z,99751.59
2023-01-13T16:38:47.400Z,99744.86
2023-01-13T16:41:21.840Z,99744.06
2023-01-13T16:43:56.106Z,99737.34
2023-01-13T16:46:31.248Z,99733.77
2023-01-13T16:49:08.586Z,99735.25
2023-01-13T16:51:42.423Z,99741.08
2023-01-13T16:54:16.049Z,99739.89
2023-01-13T16:56:50.045Z,99735.73
2023-01-13T16:59:24.117Z,99738.36
2023-01-13T17:01:59.101Z,99738.39
2023-01-13T17:04:32.914Z,99739.98
2023-01-13T17:07:08.722Z,99739.55
2023-01-13T17:09:42.659Z,99740.02
2023-01-13T17:12:17.089Z,99735.95
2023-01-13T17:14:51.542Z,99744.05
2023-01-13T17:17:27.745Z,99740.80
2023-01-13T17:20:01.749Z,99745.27
2023-01-13T17:22:36.226Z,99753.34
2023-01-13T17:25:12.588Z,99754.11
2023-01-13T17:27:47.098Z,99758.05
2023-01-13T17:30:22.285Z,99755.72
2023-01-13T17:32:56.421Z,99757.96
2023-01-13T17:35:30.589Z,99760.92
2023-01-13T17:38:04.421Z,99761.52
2023-01-13T17:40:40.428Z,99762.69
2023-01-13T17:43:15.870Z,99764.23
2023-01-13T17:45:50.369Z,99764.55
2023-01-13T17:48:24.215Z,99767.55
2023-01-13T17:50:59.012Z,99766.92
2023-01-13T17:53:33.414Z,99767.10
2023-01-13T17:56:08.898Z,99766.25
2023-01-13T17:58:45.745Z,99765.42
2023-01-13T18:01:22.222Z,99767.45
2023-01-13T18:03:57.956Z,99765.46
2023-01-13T18:06:33.799Z,99769.34
2023-01-13T18:09:08.457Z,99768.08
2023-01-13T18:11:43.666Z,99768.04
2023-01-13T18:14:22.968Z,99766.59
2023-01-13T18:16:58.126Z,99765.11
2023-01-13T18:19:49.897Z,99769.56
2023-01-13T18:22:42.646Z,99767.60
2023-01-13T18:25:38.033Z,99769.95
2023-01-13T18:28:12.547Z,99765.30
2023-01-13T18:30:47.286Z,99767.96
2023-01-13T18:33:24.460Z,99774.89
2023-01-13T18:36:00.192Z,99775.29
2023-01-13T18:38:35.870Z,99774.59
2023-01-13T18:41:25.473Z,99776.00
2023-01-13T18:44:00.351Z,99774.70
2023-01-13T18:46:36.149Z,99779.85
2023-01-13T18:49:11.274Z,99785.86
2023-01-13T18:51:45.841Z,99789.43
2023-01-13T18:54:21.354Z,99788.94
2023-01-13T18:56:56.637Z,99791.09
2023-01-13T18:59:35.346Z,99795.05
2023-01-13T19:02:16.588Z,99793.55
2023-01-13T19:04:52.465Z,99792.70
2023-01-13T19:07:27.682Z,99798.18
2023-01-13T19:10:04.518Z,99803.20
2023-01-13T19:12:38.220Z,99798.73
2023-01-13T19:15:14.595Z,99802.46
2023-01-13T19:17:49.655Z,99802.89
2023-01-13T19:20:24.318Z,99804.04
2023-01-13T19:23:00.119Z,99810.06
2023-01-13T19:25:36.873Z,99813.82
2023-01-13T19:28:12.392Z,99818.85
2023-01-13T19:30:48.726Z,99820.91
2023-01-13T19:33:23.546Z,99817.16
2023-01-13T19:35:59.885Z,99816.39
2023-01-13T19:38:35.512Z,99814.85
2023-01-13T19:41:34.811Z,99817.20
2023-01-13T19:44:32.080Z,99817.34
2023-01-13T19:47:07.798Z,99823.96
2023-01-13T19:49:41.644Z,99825.33
2023-01-13T19:52:20.731Z,99829.23
2023-01-13T19:54:58.568Z,99829.35
2023-01-13T19:57:34.274Z,99829.92
2023-01-13T20:00:11.647Z,99833.41
2023-01-13T20:02:49.853Z,99839.95
2023-01-13T20:05:28.641Z,99843.80
2023-01-13T20:08:03.402Z,99844.40
2023-01-13T20:10:40.157Z,99845.60
2023-01-13T20:13:14.779Z,99844.19
2023-01-13T20:15:50.150Z,99846.80
2023-01-13T20:18:24.957Z,99850.21
2023-01-13T20:21:06.437Z,99853.95
2023-01-13T20:23:46.071Z,99856.84
2023-01-13T20:26:23.111Z,99859.04
2023-01-13T20:28:58.939Z,99865.49
2023-01-13T20:31:34.963Z,99870.88
2023-01-13T20:34:15.335Z,99875.05
2023-01-13T20:36:50.847Z,99875.15
2023-01-13T20:39:27.320Z,99874.20
2023-01-13T20:42:20.590Z,99873.84
2023-01-13T20:44:58.128Z,99876.91
2023-01-13T20:47:33.407Z,99884.71
2023-01-13T20:50:13.155Z,99890.98
2023-01-13T20:52:47.934Z,99896.57
2023-01-13T20:55:23.604Z,99895.30
2023-01-13T20:57:57.811Z,99895.10
2023-01-13T21:00:32.120Z,99897.90
2023-01-13T21:03:07.393Z,99894.61
2023-01-13T21:05:42.300Z,99894.60
2023-01-13T21:08:18.538Z,99898.67
2023-01-13T21:10:52.805Z,99902.27
2023-01-13T21:13:43.688Z,99907.52
2023-01-13T21:16:18.640Z,99913.21
2023-01-13T21:19:11.192Z,99913.71
2023-01-13T21:21:46.055Z,99915.23
2023-01-13T21:24:20.574Z,99911.14
2023-01-13T21:26:57.715Z,99908.84
2023-01-13T21:29:32.140Z,99910.44
2023-01-13T21:32:06.367Z,99916.67
2023-01-13T21:34:40.140Z,99919.11
2023-01-13T21:37:15.176Z,99920.89
2023-01-13T21:39:49.520Z,99921.03
2023-01-13T21:42:40.564Z,99920.80
2023-01-13T21:45:32.518Z,99920.75
2023-01-13T21:48:07.487Z,99920.84
2023-01-13T21:50:41.613Z,99922.75
2023-01-13T21:53:15.480Z,99921.09
2023-01-13T21:55:53.976Z,99923.48
2023-01-13T21:58:27.646Z,99927.96
2023-01-13T22:01:05.094Z,99930.55
2023-01-13T22:03:53.142Z,99931.06
2023-01-13T22:06:28.199Z,99935.39
2023-01-13T22:09:01.819Z,99938.52
2023-01-13T22:11:35.679Z,99942.90
2023-01-13T22:14:10.102Z,99943.84
2023-01-13T22:16:50.035Z,99941.19
2023-01-13T22:19:25.183Z,99939.73
2023-01-13T22:21:58.957Z,99937.71
2023-01-13T22:24:33.006Z,99939.64
2023-01-13T22:27:07.672Z,99942.80
2023-01-13T22:29:41.723Z,99947.73
2023-01-13T22:32:15.568Z,99951.02
2023-01-13T22:34:49.277Z,99956.13
2023-01-13T22:37:23.411Z,99955.05
2023-01-13T22:39:57.190Z,99961.70
2023-01-13T22:42:31.040Z,99966.00
2023-01-13T22:45:04.614Z,99962.02
2023-01-13T22:47:38.223Z,99968.21
2023-01-13T22:50:14.233Z,99973.30
2023-01-13T22:52:48.130Z,99970.02
2023-01-13T22:55:21.963Z,99970.49
2023-01-13T22:57:55.886Z,99972.23
2023-01-13T23:00:29.974Z,99976.05
2023-01-13T23:03:03.713Z,99981.48
2023-01-13T23:05:37.736Z,99984.22
2023-01-13T23:08:12.489Z,99983.96
2023-01-13T23:10:46.450Z,99984.98
2023-01-13T23:13:20.461Z,99985.26
2023-01-13T23:15:54.391Z,99985.05
2023-01-13T23:18:29.678Z,99988.14
2023-01-13T23:21:07.886Z,99991.96
2023-01-13T23:23:42.065Z,99992.73
2023-01-13T23:26:16.653Z,99991.88
2023-01-13T23:28:50.714Z,99991.58
2023-01-13T23:31:24.995Z,99994.06
2023-01-13T23:33:58.983Z,99997.70
2023-01-13T23:36:32.800Z,99998.23
2023-01-13T23:39:06.381Z,99996.90
2023-01-13T23:41:39.950Z,99991.39
2023-01-13T23:44:14.206Z,99989.98
2023-01-13T23:46:48.246Z,99989.42
2023-01-13T23:49:22.183Z,99990.41
2023-01-13T23:51:56.432Z,99995.95
2023-01-13T23:54:30.492Z,99994.34
2023-01-13T23:57:03.922Z,99992.80
2023-01-13T23:59:37.183Z,99992.54
